高雄終端管制區 - 高雄雷達席

METAR RCKH 231800Z 05003KT 6000 FEW014 SCT025 BKN080 19/17 Q1021 NOSIG RMK A3015=

站台狀態:Online
最後更新:2020-02-24 03:00:02